This is the latest recevied weather packets stored in our database for station/object VR2R-13. If no packets are shown the sender has not sent any weather packets the latest 10 day(s).
| Time | Temp. | Humidity | Pressure | Rain* | Wind** | Luminosity | Snow |
|---|---|---|---|---|---|---|---|
| 1778212813 | 21.67° C | 92% | 915.3 hPa | 0 mm | - | - | - |
| 1778212692 | 21.67° C | 92% | 915.3 hPa | 0 mm | - | - | - |
| 1778212453 | 21.67° C | 92% | 915.3 hPa | 0 mm | - | - | - |
| 1778212392 | 21.67° C | 92% | 915.3 hPa | 0 mm | - | - | - |
| 1778211492 | 21.67° C | 92% | 915.4 hPa | 0 mm | - | - | - |
| 1778211373 | 21.67° C | 91% | 915.4 hPa | 0 mm | - | - | - |
| 1778211013 | 21.67° C | 92% | 915.4 hPa | 0 mm | - | - | - |
| 1778210892 | 21.67° C | 92% | 915.4 hPa | 0 mm | - | - | - |
| 1778210653 | 21.67° C | 92% | 915.4 hPa | 0 mm | - | - | - |
| 1778210592 | 21.67° C | 93% | 915.4 hPa | 0 mm | - | - | - |
| 1778209692 | 20.56° C | 95% | 915.7 hPa | 0 mm | - | - | - |
| 1778209573 | 20.56° C | 95% | 915.8 hPa | 0 mm | - | - | - |
| 1778207592 | 21.67° C | 91% | 915.9 hPa | 0 mm | - | - | - |
| 1778207413 | 21.67° C | 91% | 916 hPa | 0 mm | - | - | - |
| 1778207291 | 21.11° C | 92% | 916.1 hPa | 0 mm | - | - | - |
| 1778206693 | 21.11° C | 93% | 916.1 hPa | 0 mm | - | - | - |
| 1778206692 | 21.11° C | 93% | 916.1 hPa | 0 mm | - | - | - |
| 1778206391 | 21.11° C | 93% | 916.1 hPa | 0 mm | - | - | - |
| 1778206332 | 21.11° C | 93% | 916.1 hPa | 0 mm | - | - | - |
| 1778206091 | 21.11° C | 93% | 916.1 hPa | 0 mm | - | - | - |
| 1778205972 | 21.11° C | 92% | 916.1 hPa | 0 mm | - | - | - |
| 1778205252 | 21.67° C | 90% | 916.2 hPa | 0 mm | - | - | - |
| 1778204893 | 22.22° C | 89% | 916.1 hPa | 0 mm | - | - | - |
| 1778203812 | 22.22° C | 88% | 916.2 hPa | 0 mm | - | - | - |
| 1778203452 | 22.22° C | 88% | 916.2 hPa | 0 mm | - | - | - |
* Rain latest hour (hover to see other rain measurements)
** Current wind speed in m/s (hover to see current wind gust speed)